Time;durP1;ratioP1;P1;durP2;ratioP2;P2;SDS_P1;SDS_P2;PMS_P1;PMS_P2;Temp;Humidity;BMP_temperature;BMP_pressure;BME280_temperature;BME280_humidity;BME280_pressure;Samples;Min_cycle;Max_cycle;Signal;HPM_P1;HPM_P2
2022/12/15 00:39:15;;;;;;;13.93;10.35;;;10.50;95.40;;;;;;5123426;28;20034;-80
2022/12/15 00:41:41;;;;;;;14.90;11.00;;;10.50;95.80;;;;;;5120734;28;20447;-81
2022/12/15 00:44:07;;;;;;;17.08;12.00;;;10.50;95.90;;;;;;5116961;28;20028;-78
2022/12/15 01:22:08;;;;;;;25.48;14.85;;;10.30;95.80;;;;;;5115133;28;20259;-79
2022/12/15 01:24:34;;;;;;;27.10;16.40;;;10.40;96.30;;;;;;5113906;28;20019;-78
2022/12/15 01:27:00;;;;;;;28.65;16.63;;;10.40;96.40;;;;;;5131509;27;20027;-78
2022/12/15 01:29:25;;;;;;;36.83;17.77;;;10.40;96.30;;;;;;5131289;27;20096;-80
2022/12/15 01:31:51;;;;;;;29.42;17.65;;;10.40;96.20;;;;;;5113655;28;20439;-80
2022/12/15 01:34:18;;;;;;;31.25;16.55;;;10.40;96.40;;;;;;5115403;28;20046;-80
2022/12/15 01:36:44;;;;;;;28.48;18.08;;;10.40;96.40;;;;;;5113723;28;20371;-77
2022/12/15 01:39:11;;;;;;;28.45;17.13;;;10.40;96.60;;;;;;5113621;28;20524;-78
2022/12/15 01:41:36;;;;;;;30.75;17.90;;;10.40;96.50;;;;;;5113659;28;20323;-78
2022/12/15 01:44:23;;;;;;;37.42;17.60;;;10.40;96.60;;;;;;5115125;28;20020;-80
2022/12/15 01:46:53;;;;;;;47.80;18.70;;;10.40;96.00;;;;;;5113777;28;20024;-78
2022/12/15 01:49:29;;;;;;;66.10;19.58;;;10.40;96.60;;;;;;5113497;28;20020;-80
2022/12/15 01:51:58;;;;;;;34.08;18.52;;;10.40;96.60;;;;;;5115243;28;20109;-80
2022/12/15 01:54:56;;;;;;;44.17;18.50;;;10.40;96.70;;;;;;5113502;28;20059;-80
2022/12/15 01:57:27;;;;;;;59.55;18.75;;;10.40;96.20;;;;;;5111914;28;20069;-80
2022/12/15 01:59:58;;;;;;;44.20;18.27;;;10.40;96.80;;;;;;5115139;28;20031;-78
2022/12/15 02:02:26;;;;;;;62.03;18.77;;;10.40;96.90;;;;;;5114788;28;20042;-80
2022/12/15 02:04:55;;;;;;;34.78;18.50;;;10.40;96.90;;;;;;5115005;28;20095;-80
2022/12/15 02:07:22;;;;;;;35.80;18.85;;;10.40;97.00;;;;;;5114708;28;20035;-80
2022/12/15 02:09:50;;;;;;;30.75;17.25;;;10.40;97.00;;;;;;5113347;28;20012;-80
2022/12/15 02:12:18;;;;;;;32.92;18.40;;;10.40;97.00;;;;;;5114754;28;20056;-80
2022/12/15 02:14:49;;;;;;;31.98;17.48;;;10.40;97.00;;;;;;5114399;28;20045;-79
2022/12/15 02:17:26;;;;;;;31.38;17.73;;;10.50;96.80;;;;;;5114659;28;20075;-79
2022/12/15 02:20:07;;;;;;;33.80;16.98;;;10.40;97.10;;;;;;5114731;28;20024;-80
2022/12/15 02:22:57;;;;;;;29.13;16.75;;;10.50;96.60;;;;;;5114135;28;20024;-79
2022/12/15 02:25:57;;;;;;;32.72;17.45;;;10.50;96.80;;;;;;5112906;28;20501;-79
2022/12/15 02:28:47;;;;;;;31.10;17.55;;;10.50;96.70;;;;;;5108473;28;20073;-78
2022/12/15 02:34:24;;;;;;;28.30;16.77;;;10.50;97.10;;;;;;5114532;28;20164;-78
2022/12/15 02:36:56;;;;;;;28.75;17.02;;;10.50;96.80;;;;;;5113941;27;20577;-79
2022/12/15 02:39:22;;;;;;;39.05;16.27;;;10.60;97.20;;;;;;5113933;28;20020;-80
2022/12/15 02:41:50;;;;;;;27.20;16.27;;;10.60;97.20;;;;;;5112478;28;20056;-79
2022/12/15 02:44:21;;;;;;;27.23;16.52;;;10.60;97.20;;;;;;5113880;28;20094;-78
2022/12/15 02:47:00;;;;;;;27.20;16.50;;;10.60;97.30;;;;;;5112634;28;20104;-79
2022/12/15 02:49:53;;;;;;;31.90;15.68;;;10.50;96.90;;;;;;5112367;28;20034;-79
2022/12/15 02:52:21;;;;;;;27.83;16.75;;;10.60;97.20;;;;;;5113581;28;20498;-78
2022/12/15 02:54:53;;;;;;;28.00;17.00;;;10.50;96.90;;;;;;5113672;28;20020;-78
2022/12/15 02:57:42;;;;;;;27.88;16.08;;;10.50;96.90;;;;;;5113330;28;20513;-79
2022/12/15 03:00:09;;;;;;;29.77;16.42;;;10.60;97.10;;;;;;5112503;28;20483;-79
2022/12/15 03:02:39;;;;;;;29.67;16.98;;;10.60;97.20;;;;;;5113303;28;20019;-79
2022/12/15 03:05:06;;;;;;;25.98;16.52;;;10.60;97.20;;;;;;5113849;28;20034;-80
2022/12/15 03:07:31;;;;;;;32.60;18.85;;;10.60;97.20;;;;;;5113580;28;20374;-78
2022/12/15 03:10:04;;;;;;;44.83;17.52;;;10.70;97.30;;;;;;5127291;28;20049;-80
2022/12/15 03:12:29;;;;;;;59.95;17.02;;;10.60;97.20;;;;;;5129957;28;20061;-78
2022/12/15 03:14:55;;;;;;;44.08;17.75;;;10.50;97.10;;;;;;5131656;27;20023;-79
2022/12/15 03:17:21;;;;;;;28.13;16.13;;;10.40;97.10;;;;;;5129656;27;20084;-79
2022/12/15 03:19:46;;;;;;;24.85;15.32;;;10.40;97.20;;;;;;5113810;28;20469;-79
2022/12/15 03:22:12;;;;;;;24.35;15.30;;;10.40;97.30;;;;;;5113518;28;20380;-79
2022/12/15 03:24:38;;;;;;;24.33;14.75;;;10.40;97.30;;;;;;5112061;28;20108;-80
2022/12/15 03:27:03;;;;;;;25.17;15.00;;;10.50;97.30;;;;;;5113398;28;20077;-79
2022/12/15 03:29:29;;;;;;;25.05;13.75;;;10.40;97.10;;;;;;5111727;28;20015;-79
2022/12/15 03:31:55;;;;;;;23.48;14.00;;;10.40;97.20;;;;;;5113510;28;20030;-79
2022/12/15 03:34:20;;;;;;;23.65;13.23;;;10.40;97.20;;;;;;5111861;28;20020;-80
2022/12/15 03:36:46;;;;;;;21.80;14.23;;;10.40;97.20;;;;;;5128823;27;20472;-79
2022/12/15 03:39:12;;;;;;;21.77;13.68;;;10.40;97.20;;;;;;5112632;28;20096;-79
2022/12/15 03:41:38;;;;;;;22.17;14.10;;;10.40;97.20;;;;;;5113004;28;20027;-81
2022/12/15 03:44:03;;;;;;;21.17;13.05;;;10.50;97.20;;;;;;5113047;28;20106;-81
2022/12/15 03:46:29;;;;;;;20.17;13.13;;;10.50;97.20;;;;;;5111901;28;20477;-79
2022/12/15 03:48:55;;;;;;;18.83;12.52;;;10.50;97.20;;;;;;5111715;28;20027;-80
2022/12/15 03:51:21;;;;;;;18.00;11.98;;;10.50;97.20;;;;;;5111464;28;20024;-79
2022/12/15 03:53:48;;;;;;;16.75;11.48;;;10.40;97.00;;;;;;5111729;28;20109;-80
2022/12/15 03:56:14;;;;;;;17.98;12.50;;;10.40;97.10;;;;;;5128816;28;20023;-78
2022/12/15 03:58:40;;;;;;;18.10;12.57;;;10.40;97.00;;;;;;5113394;28;20051;-78
2022/12/15 04:01:28;;;;;;;17.85;11.95;;;10.40;97.00;;;;;;5112869;28;20024;-79
2022/12/15 04:03:55;;;;;;;16.77;12.35;;;10.40;96.70;;;;;;5113337;28;20027;-81
2022/12/15 04:06:21;;;;;;;17.80;12.88;;;10.40;97.00;;;;;;5113197;28;20569;-79
2022/12/15 04:08:47;;;;;;;15.95;11.70;;;10.40;96.80;;;;;;5111795;28;20031;-80
2022/12/15 04:11:13;;;;;;;16.63;11.63;;;10.40;96.90;;;;;;5116789;28;20024;-79
2022/12/15 04:13:38;;;;;;;16.70;11.85;;;10.30;96.70;;;;;;5116779;28;20030;-79
2022/12/15 04:16:04;;;;;;;17.42;12.57;;;10.30;96.80;;;;;;5115523;28;20016;-80
2022/12/15 04:18:30;;;;;;;16.75;12.20;;;10.30;96.70;;;;;;5116932;28;20037;-80
2022/12/15 04:20:56;;;;;;;17.35;12.27;;;10.30;96.70;;;;;;5116989;28;20031;-78
2022/12/15 04:23:22;;;;;;;15.88;11.40;;;10.40;96.70;;;;;;5116739;27;20085;-79
2022/12/15 05:31:51;;;;;;;15.50;9.77;;;10.40;95.70;;;;;;5115298;28;20031;-80
2022/12/15 05:34:37;;;;;;;13.60;9.50;;;10.40;96.30;;;;;;5114125;28;20024;-85
2022/12/15 05:37:06;;;;;;;13.88;9.25;;;10.50;96.30;;;;;;5115521;27;20484;-82
2022/12/15 05:39:31;;;;;;;16.40;9.52;;;10.50;96.40;;;;;;5115638;28;20393;-82
2022/12/15 05:41:57;;;;;;;14.63;9.38;;;10.40;96.30;;;;;;5115307;28;20026;-84
2022/12/15 05:44:24;;;;;;;14.05;9.45;;;10.40;96.30;;;;;;5105979;28;20024;-84
2022/12/15 05:46:50;;;;;;;13.35;9.40;;;10.50;96.50;;;;;;5100166;28;20102;-87
2022/12/15 05:49:17;;;;;;;14.70;9.32;;;10.40;96.40;;;;;;5098396;28;20036;-87
2022/12/15 05:51:45;;;;;;;13.50;9.68;;;10.40;96.40;;;;;;5095244;28;20042;-87
2022/12/15 05:54:15;;;;;;;13.57;8.85;;;10.40;96.40;;;;;;5097905;28;20048;-87
2022/12/15 05:56:40;;;;;;;15.00;9.25;;;10.40;96.50;;;;;;5100946;28;20024;-85
2022/12/15 05:59:07;;;;;;;12.45;8.93;;;10.50;96.40;;;;;;5108242;28;20052;-90
2022/12/15 06:01:34;;;;;;;14.82;9.60;;;10.50;96.50;;;;;;5116093;28;20024;-81
2022/12/15 06:04:00;;;;;;;12.63;8.93;;;10.50;96.30;;;;;;5118908;28;20032;-89
2022/12/15 06:06:26;;;;;;;13.07;8.57;;;10.50;96.40;;;;;;5118727;28;20034;-92
2022/12/15 06:08:52;;;;;;;11.05;7.78;;;10.40;96.30;;;;;;5117740;28;20114;-92
2022/12/15 06:11:19;;;;;;;11.88;8.70;;;10.40;96.20;;;;;;5119516;28;20016;-88
2022/12/15 06:13:45;;;;;;;12.80;8.10;;;10.30;96.20;;;;;;5110191;28;20020;-88
2022/12/15 06:16:17;;;;;;;11.15;8.02;;;10.40;96.30;;;;;;5112491;28;20016;-92
2022/12/15 06:18:45;;;;;;;10.63;7.57;;;10.40;96.40;;;;;;5108047;28;20036;-87
2022/12/15 06:21:14;;;;;;;11.25;8.45;;;10.40;96.40;;;;;;5103614;28;20044;-92
2022/12/15 06:23:41;;;;;;;13.57;8.48;;;10.40;96.40;;;;;;5112639;28;20020;-92
2022/12/15 06:26:11;;;;;;;11.95;8.60;;;10.40;96.40;;;;;;5106097;28;20028;-93
2022/12/15 06:28:38;;;;;;;11.60;8.00;;;10.40;96.40;;;;;;5099637;28;20059;-87
2022/12/15 06:31:05;;;;;;;10.85;8.57;;;10.40;96.30;;;;;;5098557;28;20075;-93
2022/12/15 06:33:31;;;;;;;38.35;14.80;;;10.40;96.30;;;;;;5105526;28;20119;-91
2022/12/15 06:36:22;;;;;;;30.15;14.60;;;10.40;96.30;;;;;;5108161;28;20024;-91
2022/12/15 06:38:49;;;;;;;20.50;10.27;;;10.40;96.20;;;;;;5110092;28;20043;-87
2022/12/15 06:41:18;;;;;;;12.20;8.02;;;10.40;96.10;;;;;;5109693;28;20028;-92
2022/12/15 06:43:52;;;;;;;10.68;7.25;;;10.50;96.30;;;;;;5101926;28;20487;-87
2022/12/15 06:46:18;;;;;;;9.55;7.25;;;10.50;95.40;;;;;;5096816;28;20460;-85
2022/12/15 06:48:45;;;;;;;10.05;6.93;;;10.50;96.20;;;;;;5098595;28;20024;-84
2022/12/15 06:51:12;;;;;;;11.05;7.28;;;10.50;96.20;;;;;;5093703;28;20028;-84
2022/12/15 06:53:39;;;;;;;11.85;6.75;;;10.50;96.20;;;;;;5098257;28;20107;-90
2022/12/15 06:56:12;;;;;;;11.20;6.90;;;10.50;96.20;;;;;;5104611;28;20123;-94
2022/12/15 06:58:38;;;;;;;9.70;6.57;;;10.50;96.20;;;;;;5096677;28;20032;-87
2022/12/15 07:01:08;;;;;;;8.57;6.28;;;10.50;96.20;;;;;;5096435;28;20365;-90
2022/12/15 07:03:34;;;;;;;9.77;6.65;;;10.50;96.10;;;;;;5097097;28;20059;-88
2022/12/15 07:06:03;;;;;;;9.38;6.95;;;10.50;96.20;;;;;;5096651;28;20387;-86
2022/12/15 07:08:29;;;;;;;10.13;6.82;;;10.50;96.20;;;;;;5094225;28;20028;-92
2022/12/15 07:10:55;;;;;;;10.05;6.78;;;10.50;96.10;;;;;;5097120;28;20061;-91
2022/12/15 07:13:21;;;;;;;8.30;6.47;;;10.60;96.20;;;;;;5109159;28;20031;-91
2022/12/15 07:15:48;;;;;;;10.10;6.68;;;10.60;96.30;;;;;;5104825;28;20024;-90
2022/12/15 07:18:15;;;;;;;9.77;7.10;;;10.60;96.10;;;;;;5104633;28;20519;-91
2022/12/15 07:20:43;;;;;;;14.02;7.45;;;10.60;96.30;;;;;;5099555;28;20507;-89
2022/12/15 07:23:08;;;;;;;12.65;7.20;;;10.70;96.40;;;;;;5096394;28;20110;-89
2022/12/15 07:25:38;;;;;;;9.82;7.25;;;10.60;96.20;;;;;;5094393;28;20059;-90
2022/12/15 07:28:05;;;;;;;10.30;7.10;;;10.60;96.20;;;;;;5095790;28;20042;-88
2022/12/15 07:30:31;;;;;;;8.55;6.55;;;10.70;96.30;;;;;;5094689;28;20024;-88
2022/12/15 07:32:58;;;;;;;11.82;6.40;;;10.70;96.40;;;;;;5093314;28;20043;-89
2022/12/15 07:35:24;;;;;;;10.45;6.50;;;10.80;96.60;;;;;;5092522;28;20505;-87
2022/12/15 07:37:50;;;;;;;8.63;6.60;;;10.80;96.30;;;;;;5093374;28;20044;-87
2022/12/15 07:40:16;;;;;;;10.10;6.70;;;10.90;96.30;;;;;;5091948;28;20414;-85
2022/12/15 07:42:41;;;;;;;11.10;6.85;;;11.00;96.40;;;;;;5093779;28;20077;-87
2022/12/15 07:45:08;;;;;;;13.50;7.30;;;11.00;96.40;;;;;;5094194;28;20426;-84
2022/12/15 07:47:34;;;;;;;10.90;6.90;;;11.10;96.20;;;;;;5096511;28;20016;-89
2022/12/15 07:50:00;;;;;;;10.40;7.60;;;11.10;96.50;;;;;;5093726;28;20384;-79
2022/12/15 07:52:26;;;;;;;11.70;7.35;;;11.20;96.50;;;;;;5091259;28;20039;-79
2022/12/15 07:54:52;;;;;;;13.60;7.82;;;11.20;96.30;;;;;;5091122;28;20129;-81
2022/12/15 07:57:18;;;;;;;12.63;8.07;;;11.30;96.40;;;;;;5093001;28;20035;-80
2022/12/15 07:59:44;;;;;;;10.90;7.70;;;11.40;96.40;;;;;;5092144;28;20024;-81
2022/12/15 08:02:11;;;;;;;10.18;7.05;;;11.40;96.30;;;;;;5093037;28;20090;-81
2022/12/15 08:04:37;;;;;;;10.23;7.22;;;11.50;96.50;;;;;;5091465;28;20036;-81
2022/12/15 08:07:03;;;;;;;13.30;7.70;;;11.50;96.50;;;;;;5092070;28;20475;-82
2022/12/15 08:09:32;;;;;;;11.85;7.55;;;11.60;96.70;;;;;;5092144;28;20363;-79
2022/12/15 08:11:58;;;;;;;11.82;7.20;;;11.60;96.10;;;;;;5091277;28;20107;-83
2022/12/15 08:14:24;;;;;;;10.95;7.05;;;11.70;96.40;;;;;;5092460;28;20541;-81
2022/12/15 08:16:50;;;;;;;11.50;7.03;;;11.70;96.30;;;;;;5092276;28;20047;-80
2022/12/15 08:19:16;;;;;;;15.82;8.05;;;11.70;96.50;;;;;;5091348;28;20055;-80
2022/12/15 08:21:44;;;;;;;11.90;7.63;;;11.80;96.50;;;;;;5091618;28;20024;-80
2022/12/15 08:24:12;;;;;;;10.93;7.65;;;11.90;96.60;;;;;;5091103;28;20028;-82
2022/12/15 08:26:38;;;;;;;20.75;7.65;;;12.00;96.50;;;;;;5092143;28;20475;-82
2022/12/15 08:29:06;;;;;;;15.05;7.55;;;12.00;96.50;;;;;;5090509;28;20024;-80
2022/12/15 08:31:32;;;;;;;34.90;22.52;;;12.10;96.50;;;;;;5092017;28;20507;-81
2022/12/15 08:34:02;;;;;;;18.58;11.32;;;12.10;96.50;;;;;;5090494;28;20590;-81
2022/12/15 08:36:28;;;;;;;12.52;8.10;;;12.10;96.50;;;;;;5090431;28;20035;-81
2022/12/15 08:38:58;;;;;;;14.95;7.93;;;12.20;96.30;;;;;;5090357;28;20048;-78
2022/12/15 08:41:27;;;;;;;13.30;8.70;;;12.30;96.50;;;;;;5091953;28;20024;-82
2022/12/15 08:43:54;;;;;;;14.90;7.95;;;12.30;96.30;;;;;;5091675;28;20051;-82
2022/12/15 08:46:25;;;;;;;16.70;9.00;;;12.30;96.30;;;;;;5091830;28;20050;-82
2022/12/15 08:48:54;;;;;;;13.55;8.23;;;12.30;96.30;;;;;;5092256;28;20027;-82
2022/12/15 08:51:20;;;;;;;14.18;8.55;;;12.30;95.80;;;;;;5092297;28;20047;-81
2022/12/15 08:53:46;;;;;;;18.35;8.88;;;12.30;96.30;;;;;;5092027;28;20048;-80
2022/12/15 08:56:15;;;;;;;13.13;7.78;;;12.30;96.10;;;;;;5096272;28;20086;-82
2022/12/15 08:58:41;;;;;;;14.32;9.00;;;12.40;96.20;;;;;;5101602;28;20044;-82
2022/12/15 09:01:12;;;;;;;13.13;8.90;;;12.30;96.10;;;;;;5107360;28;20030;-70
2022/12/15 09:03:38;;;;;;;18.85;9.02;;;12.40;96.20;;;;;;5117318;28;20036;-81
2022/12/15 09:06:11;;;;;;;18.40;8.63;;;12.30;96.00;;;;;;5096334;28;20095;-81
2022/12/15 09:08:37;;;;;;;;;;;12.30;96.30;;;;;;5096245;28;20360;-82
2022/12/15 09:11:04;;;;;;;13.82;8.75;;;12.40;96.10;;;;;;5094139;28;19904;-82
2022/12/15 09:13:30;;;;;;;12.52;8.77;;;12.40;96.10;;;;;;5093391;28;20137;-81
2022/12/15 09:16:00;;;;;;;19.25;9.80;;;12.40;96.10;;;;;;5094994;28;20051;-81
2022/12/15 09:18:25;;;;;;;18.33;9.65;;;12.50;96.00;;;;;;5093568;28;20038;-82
2022/12/15 09:20:52;;;;;;;21.42;11.02;;;12.50;96.00;;;;;;5091354;28;20511;-80
2022/12/15 09:23:19;;;;;;;16.40;9.05;;;12.50;96.10;;;;;;5094134;28;20073;-80
2022/12/15 09:25:45;;;;;;;16.02;9.70;;;12.50;96.10;;;;;;5094850;28;20016;-78
2022/12/15 09:28:12;;;;;;;15.00;9.65;;;12.60;96.10;;;;;;5087126;28;20400;-75
2022/12/15 09:30:38;;;;;;;16.63;9.88;;;12.60;96.10;;;;;;5084106;28;20116;-79
2022/12/15 09:33:03;;;;;;;19.02;9.68;;;12.60;96.10;;;;;;5092306;28;20466;-77
2022/12/15 09:35:29;;;;;;;22.58;10.75;;;12.60;96.00;;;;;;5093026;28;20074;-76
2022/12/15 09:37:57;;;;;;;13.60;9.27;;;12.60;96.10;;;;;;5093105;28;20065;-77
2022/12/15 09:40:24;;;;;;;27.15;10.73;;;12.60;96.00;;;;;;5094039;28;20031;-80
2022/12/15 09:42:55;;;;;;;17.35;10.20;;;12.70;96.00;;;;;;5092819;28;20189;-76
2022/12/15 09:45:25;;;;;;;27.85;11.68;;;12.60;96.10;;;;;;5092855;28;20047;-78
2022/12/15 09:48:03;;;;;;;26.65;12.93;;;12.70;96.20;;;;;;5093952;28;20552;-76
2022/12/15 09:50:37;;;;;;;30.20;11.80;;;12.70;96.20;;;;;;5092745;28;20110;-80
2022/12/15 09:53:04;;;;;;;;;;;12.80;96.30;;;;;;5094876;28;20052;-79
2022/12/15 09:55:31;;;;;;;20.52;10.65;;;12.80;96.30;;;;;;5094611;28;19954;-80
2022/12/15 09:58:06;;;;;;;21.15;10.68;;;12.80;96.10;;;;;;5094369;28;20455;-80
2022/12/15 10:00:39;;;;;;;20.35;10.95;;;12.90;96.10;;;;;;5094705;28;20035;-75
2022/12/15 10:03:23;;;;;;;21.38;10.52;;;12.90;96.20;;;;;;5094009;28;20020;-80
2022/12/15 10:06:04;;;;;;;20.77;11.07;;;13.00;95.40;;;;;;5094453;28;20031;-79
2022/12/15 10:08:58;;;;;;;19.48;10.40;;;13.10;95.40;;;;;;5094109;28;20028;-81
2022/12/15 10:11:48;;;;;;;24.10;11.73;;;13.20;95.30;;;;;;5092882;28;20040;-82
2022/12/15 10:14:39;;;;;;;19.83;11.10;;;13.20;95.20;;;;;;5092344;28;20028;-78
2022/12/15 10:17:16;;;;;;;28.17;12.65;;;13.20;95.30;;;;;;5094150;28;20451;-79
2022/12/15 10:19:42;;;;;;;18.83;11.48;;;13.20;95.30;;;;;;5093553;28;20442;-86
2022/12/15 10:22:31;;;;;;;30.65;14.40;;;13.20;96.10;;;;;;5096557;28;20089;-83
2022/12/15 10:25:01;;;;;;;19.25;10.90;;;13.30;95.40;;;;;;5093247;28;20054;-86
2022/12/15 10:27:52;;;;;;;32.58;15.23;;;13.30;96.10;;;;;;5094908;28;20270;-87
2022/12/15 10:30:18;;;;;;;36.75;15.13;;;13.30;95.40;;;;;;5095735;28;20123;-82
2022/12/15 10:33:20;;;;;;;29.33;13.32;;;13.40;96.00;;;;;;5094513;28;20020;-83
2022/12/15 10:35:46;;;;;;;33.83;12.77;;;13.40;95.30;;;;;;5094615;28;20024;-87
2022/12/15 10:38:29;;;;;;;31.35;13.65;;;13.50;96.20;;;;;;5094714;28;20035;-89
2022/12/15 10:40:59;;;;;;;49.63;15.70;;;13.50;96.20;;;;;;5095459;28;20039;-85
2022/12/15 10:43:45;;;;;;;42.65;16.17;;;13.60;96.20;;;;;;5089872;28;20125;-70
2022/12/15 10:46:14;;;;;;;33.55;13.52;;;13.60;95.50;;;;;;5082825;28;20028;-86
2022/12/15 10:48:58;;;;;;;24.92;12.07;;;13.60;95.50;;;;;;5091827;28;20033;-77
2022/12/15 10:51:36;;;;;;;28.13;14.48;;;13.60;96.60;;;;;;5090328;28;20131;-80
2022/12/15 10:54:11;;;;;;;28.55;12.65;;;13.60;96.40;;;;;;5080409;28;20072;-79
2022/12/15 10:56:49;;;;;;;36.42;16.35;;;13.70;96.30;;;;;;5094053;28;20375;-79
2022/12/15 10:59:33;;;;;;;25.02;13.15;;;13.70;96.40;;;;;;5100932;28;20040;-79
2022/12/15 11:02:24;;;;;;;27.05;13.35;;;13.70;95.60;;;;;;5090459;28;20507;-77
2022/12/15 11:05:15;;;;;;;43.90;13.25;;;13.70;95.60;;;;;;5085373;28;20503;-78
2022/12/15 11:08:16;;;;;;;30.27;15.05;;;13.70;95.60;;;;;;5089790;28;20025;-76
2022/12/15 11:14:10;;;;;;;27.73;12.27;;;13.80;96.50;;;;;;5088483;28;20138;-78
2022/12/15 11:16:45;;;;;;;27.42;13.25;;;13.90;96.50;;;;;;5087648;28;20032;-84
2022/12/15 11:19:15;;;;;;;23.45;14.10;;;13.90;96.50;;;;;;5081435;28;20079;-82
2022/12/15 11:21:52;;;;;;;21.67;13.48;;;13.90;96.50;;;;;;5091809;28;20016;-81
2022/12/15 11:24:28;;;;;;;25.23;13.07;;;13.90;96.40;;;;;;5091816;28;20089;-84
2022/12/15 11:26:57;;;;;;;32.85;15.20;;;13.90;96.50;;;;;;5091848;28;20426;-83
2022/12/15 11:29:45;;;;;;;51.38;19.63;;;13.90;96.50;;;;;;5091440;28;20028;-81
2022/12/15 11:32:12;;;;;;;51.80;20.20;;;14.00;95.80;;;;;;5092626;28;20060;-84
2022/12/15 11:34:40;;;;;;;35.92;14.90;;;14.10;96.50;;;;;;5092405;28;20039;-87
2022/12/15 11:37:27;;;;;;;33.92;14.60;;;14.20;96.50;;;;;;5092776;28;20043;-91
2022/12/15 11:39:56;;;;;;;27.08;14.90;;;14.30;95.90;;;;;;5095167;28;20051;-83
2022/12/15 11:42:52;;;;;;;27.60;15.40;;;14.40;96.30;;;;;;5093655;28;20035;-90
2022/12/15 11:45:41;;;;;;;31.60;16.58;;;14.40;95.80;;;;;;5095254;28;20024;-90
2022/12/15 11:48:18;;;;;;;22.48;12.63;;;14.50;95.80;;;;;;5095423;28;20031;-88
2022/12/15 11:51:13;;;;;;;32.38;14.77;;;14.60;96.40;;;;;;5093779;28;20036;-90
2022/12/15 11:53:58;;;;;;;24.40;14.57;;;14.70;95.70;;;;;;5094369;28;20470;-89
2022/12/15 11:56:34;;;;;;;37.78;17.73;;;14.80;95.70;;;;;;5093868;28;20032;-91
2022/12/15 11:59:27;;;;;;;25.00;13.90;;;14.80;95.60;;;;;;5094920;28;20036;-91
2022/12/15 12:02:26;;;;;;;20.60;13.15;;;15.00;95.60;;;;;;5110543;28;20087;-89
2022/12/15 12:05:25;;;;;;;32.72;15.55;;;15.10;95.50;;;;;;5095371;28;20115;-91
2022/12/15 12:08:10;;;;;;;28.42;14.45;;;15.20;95.40;;;;;;5095191;28;20076;-90
2022/12/15 12:10:50;;;;;;;21.70;12.30;;;15.20;95.90;;;;;;5097822;28;20057;-89
2022/12/15 12:13:41;;;;;;;22.13;11.75;;;15.30;95.40;;;;;;5102901;28;20020;-90
2022/12/15 12:16:45;;;;;;;20.10;10.80;;;15.30;95.30;;;;;;5099602;28;20040;-89
2022/12/15 12:19:18;;;;;;;19.25;10.10;;;15.30;95.30;;;;;;5106852;28;20128;-89
2022/12/15 12:21:50;;;;;;;9.65;7.13;;;15.30;95.60;;;;;;5112157;28;20050;-90
2022/12/15 12:24:29;;;;;;;21.33;11.77;;;15.20;95.70;;;;;;5114858;28;20012;-89
2022/12/15 12:27:05;;;;;;;19.35;11.15;;;15.20;95.30;;;;;;5116388;28;20031;-88
2022/12/15 12:29:40;;;;;;;16.40;9.05;;;15.20;95.40;;;;;;5115743;28;20008;-88
2022/12/15 12:32:27;;;;;;;17.08;7.57;;;15.20;95.70;;;;;;5110488;28;20058;-89
2022/12/15 12:35:12;;;;;;;13.00;5.57;;;15.20;95.20;;;;;;5106854;28;20066;-90
2022/12/15 12:37:48;;;;;;;13.98;5.10;;;15.30;95.70;;;;;;5097842;28;20049;-87
2022/12/15 12:40:23;;;;;;;12.90;5.60;;;15.30;95.60;;;;;;5107841;28;20043;-90
2022/12/15 12:42:57;;;;;;;15.50;5.55;;;15.30;95.60;;;;;;5102963;28;20035;-90
2022/12/15 12:45:25;;;;;;;;;;;15.40;95.50;;;;;;5102302;28;20107;-88
2022/12/15 12:47:55;;;;;;;12.00;5.20;;;15.40;95.50;;;;;;5097158;28;20363;-88
2022/12/15 12:50:24;;;;;;;9.43;4.00;;;15.40;95.40;;;;;;5096709;28;20036;-90
2022/12/15 12:53:02;;;;;;;8.20;3.92;;;15.50;95.40;;;;;;5097219;28;20040;-90
2022/12/15 12:55:36;;;;;;;11.65;3.45;;;15.60;95.20;;;;;;5098291;28;20039;-89
2022/12/15 12:58:02;;;;;;;12.02;3.95;;;15.60;95.00;;;;;;5097715;28;20028;-89
2022/12/15 13:00:29;;;;;;;7.43;3.55;;;15.70;94.80;;;;;;5096472;28;20391;-91
2022/12/15 13:03:15;;;;;;;9.27;3.20;;;15.70;94.70;;;;;;5098948;28;20075;-91
2022/12/15 13:05:41;;;;;;;7.70;2.58;;;15.80;94.70;;;;;;5096648;28;20039;-91
2022/12/15 13:08:07;;;;;;;8.48;3.22;;;15.90;94.50;;;;;;5097571;28;20050;-91
2022/12/15 13:10:41;;;;;;;9.13;3.45;;;15.90;94.50;;;;;;5096180;28;20028;-91
2022/12/15 13:13:28;;;;;;;6.07;2.65;;;15.90;94.40;;;;;;5098411;28;20028;-90
2022/12/15 13:16:03;;;;;;;7.13;3.20;;;15.90;94.50;;;;;;5105162;28;20028;-90
2022/12/15 13:19:03;;;;;;;8.05;2.95;;;15.90;94.50;;;;;;5098407;28;20039;-88
2022/12/15 13:21:41;;;;;;;7.03;2.90;;;15.90;94.60;;;;;;5096597;28;20352;-88
2022/12/15 13:24:28;;;;;;;8.65;2.72;;;15.90;94.50;;;;;;5094994;28;20028;-90
2022/12/15 13:27:13;;;;;;;9.38;3.90;;;15.90;94.50;;;;;;5103164;28;20028;-90
2022/12/15 13:29:57;;;;;;;6.55;2.53;;;15.90;94.40;;;;;;5100169;28;20020;-91
2022/12/15 13:32:38;;;;;;;11.85;2.90;;;16.00;94.50;;;;;;5097231;28;20031;-91
2022/12/15 13:35:13;;;;;;;8.48;2.45;;;15.90;94.50;;;;;;5095011;28;20031;-90
2022/12/15 13:37:49;;;;;;;12.82;2.78;;;16.00;94.60;;;;;;5096035;28;20119;-89
2022/12/15 13:40:33;;;;;;;8.57;3.00;;;16.00;94.60;;;;;;5096418;28;20095;-89
2022/12/15 13:43:09;;;;;;;7.22;2.85;;;16.00;94.50;;;;;;5096241;28;20102;-90
2022/12/15 13:45:47;;;;;;;7.40;2.13;;;16.00;94.40;;;;;;5095808;28;20047;-90
2022/12/15 13:48:20;;;;;;;6.47;2.17;;;16.00;94.20;;;;;;5096208;28;20060;-86
2022/12/15 13:51:02;;;;;;;9.23;2.67;;;16.10;94.30;;;;;;5096762;28;20065;-90
2022/12/15 13:53:42;;;;;;;10.15;2.85;;;16.10;94.10;;;;;;5097427;28;20525;-91
2022/12/15 13:56:10;;;;;;;6.60;2.10;;;16.10;93.90;;;;;;5096769;28;20031;-90
2022/12/15 13:58:46;;;;;;;4.25;1.80;;;16.20;93.90;;;;;;5098364;28;20608;-89
2022/12/15 14:01:28;;;;;;;6.38;2.30;;;16.20;93.90;;;;;;5097323;28;20058;-89
2022/12/15 14:03:59;;;;;;;9.65;2.88;;;16.20;93.90;;;;;;5096168;28;20057;-88
2022/12/15 14:06:34;;;;;;;5.40;2.20;;;16.20;93.90;;;;;;5096429;28;20444;-89
2022/12/15 14:09:00;;;;;;;6.32;2.40;;;16.20;93.90;;;;;;5094527;28;20026;-90
2022/12/15 14:11:32;;;;;;;10.07;2.30;;;16.20;93.90;;;;;;5096985;28;20103;-88
2022/12/15 14:13:59;;;;;;;5.80;2.58;;;16.20;93.80;;;;;;5102441;28;20024;-89
2022/12/15 14:16:28;;;;;;;8.10;2.30;;;16.20;93.70;;;;;;5102865;28;20062;-89
2022/12/15 14:19:07;;;;;;;7.90;2.75;;;16.20;93.70;;;;;;5109349;28;20099;-89
2022/12/15 14:21:33;;;;;;;9.23;2.33;;;16.20;93.80;;;;;;5103140;28;20029;-90
2022/12/15 14:24:00;;;;;;;9.30;2.15;;;16.20;93.70;;;;;;5095801;28;20032;-90
2022/12/15 14:26:29;;;;;;;8.18;2.55;;;16.20;93.80;;;;;;5095116;28;20020;-88
2022/12/15 14:29:04;;;;;;;8.65;2.05;;;16.20;93.70;;;;;;5093656;28;20483;-90
2022/12/15 14:31:30;;;;;;;14.68;5.80;;;16.20;93.70;;;;;;5095386;28;20024;-87
2022/12/15 14:34:14;;;;;;;6.72;1.85;;;16.20;93.70;;;;;;5095201;28;20024;-88
2022/12/15 14:36:41;;;;;;;7.13;2.20;;;16.20;93.70;;;;;;5095400;28;20024;-89
2022/12/15 14:39:25;;;;;;;7.30;1.90;;;16.20;93.70;;;;;;5096297;28;20036;-88
2022/12/15 14:41:52;;;;;;;8.05;2.03;;;16.20;93.70;;;;;;5108738;28;20032;-90
2022/12/15 14:44:31;;;;;;;7.60;2.15;;;16.20;93.70;;;;;;5095121;28;20423;-88
2022/12/15 14:46:59;;;;;;;11.38;2.25;;;16.20;93.70;;;;;;5094125;28;20480;-89
2022/12/15 14:49:38;;;;;;;5.40;2.03;;;16.20;93.60;;;;;;5095572;28;20035;-89
2022/12/15 14:52:06;;;;;;;6.68;1.90;;;16.20;93.60;;;;;;5094289;28;20114;-90
2022/12/15 14:54:37;;;;;;;8.07;2.80;;;16.20;93.50;;;;;;5094684;28;20059;-90
2022/12/15 14:57:19;;;;;;;5.60;2.28;;;16.20;93.50;;;;;;5097029;28;20100;-89
2022/12/15 14:59:47;;;;;;;7.10;1.98;;;16.20;93.50;;;;;;5096581;28;20020;-91
2022/12/15 15:02:19;;;;;;;7.25;2.10;;;16.20;93.60;;;;;;5095063;28;20395;-92
2022/12/15 15:05:26;;;;;;;7.00;2.15;;;16.20;93.70;;;;;;5096610;28;20020;-90
2022/12/15 15:07:55;;;;;;;7.18;1.95;;;16.20;93.60;;;;;;5076737;28;20028;-91
2022/12/15 15:10:26;;;;;;;9.38;1.83;;;16.20;93.60;;;;;;5094446;28;20490;-89
2022/12/15 15:12:53;;;;;;;5.80;2.20;;;16.30;93.60;;;;;;5096751;28;20028;-92
2022/12/15 15:15:22;;;;;;;6.72;1.80;;;16.30;93.40;;;;;;5093915;28;20043;-88
2022/12/15 15:17:51;;;;;;;6.30;2.03;;;16.30;93.50;;;;;;5095235;28;20036;-90
2022/12/15 15:20:20;;;;;;;5.53;1.92;;;16.30;93.40;;;;;;5094673;28;20028;-90
2022/12/15 15:23:01;;;;;;;8.05;2.08;;;16.30;93.40;;;;;;5093825;28;20085;-89
2022/12/15 15:25:37;;;;;;;8.18;2.28;;;16.30;93.40;;;;;;5098190;28;20059;-88
2022/12/15 15:28:17;;;;;;;10.15;2.58;;;16.30;93.40;;;;;;5095443;28;20123;-89